sensor_id;sensor_type;location;lat;lon;timestamp;P1;durP1;ratioP1;P2;durP2;ratioP2
3865;SDS011;1948;53.250;10.412;2023-09-07T00:00:59;8.40;;;6.67;;
3865;SDS011;1948;53.250;10.412;2023-09-07T00:03:27;17.80;;;6.67;;
3865;SDS011;1948;53.250;10.412;2023-09-07T00:05:54;9.43;;;6.87;;
3865;SDS011;1948;53.250;10.412;2023-09-07T00:08:24;6.90;;;6.40;;
3865;SDS011;1948;53.250;10.412;2023-09-07T00:10:51;7.97;;;6.70;;
3865;SDS011;1948;53.250;10.412;2023-09-07T00:13:18;18.93;;;6.80;;
3865;SDS011;1948;53.250;10.412;2023-09-07T00:15:47;10.53;;;6.30;;
3865;SDS011;1948;53.250;10.412;2023-09-07T00:18:20;24.47;;;6.60;;
3865;SDS011;1948;53.250;10.412;2023-09-07T00:20:49;7.20;;;6.40;;
3865;SDS011;1948;53.250;10.412;2023-09-07T00:23:16;15.00;;;6.77;;
3865;SDS011;1948;53.250;10.412;2023-09-07T00:25:43;10.67;;;5.77;;
3865;SDS011;1948;53.250;10.412;2023-09-07T00:28:10;6.97;;;6.33;;
3865;SDS011;1948;53.250;10.412;2023-09-07T00:30:37;9.57;;;5.60;;
3865;SDS011;1948;53.250;10.412;2023-09-07T00:33:07;10.73;;;6.23;;
3865;SDS011;1948;53.250;10.412;2023-09-07T00:35:34;7.63;;;6.30;;
3865;SDS011;1948;53.250;10.412;2023-09-07T00:38:02;17.60;;;6.43;;
3865;SDS011;1948;53.250;10.412;2023-09-07T00:40:29;9.03;;;6.67;;
3865;SDS011;1948;53.250;10.412;2023-09-07T00:42:58;19.40;;;6.60;;
3865;SDS011;1948;53.250;10.412;2023-09-07T00:48:13;17.17;;;6.37;;
3865;SDS011;1948;53.250;10.412;2023-09-07T00:50:42;5.53;;;5.13;;
3865;SDS011;1948;53.250;10.412;2023-09-07T00:53:13;9.63;;;6.60;;
3865;SDS011;1948;53.250;10.412;2023-09-07T00:55:41;7.80;;;6.97;;
3865;SDS011;1948;53.250;10.412;2023-09-07T00:58:10;10.57;;;6.23;;
3865;SDS011;1948;53.250;10.412;2023-09-07T01:00:38;12.37;;;6.33;;
3865;SDS011;1948;53.250;10.412;2023-09-07T01:03:06;6.87;;;6.10;;
3865;SDS011;1948;53.250;10.412;2023-09-07T01:05:41;7.60;;;6.40;;
3865;SDS011;1948;53.250;10.412;2023-09-07T01:08:26;6.40;;;5.83;;
3865;SDS011;1948;53.250;10.412;2023-09-07T01:11:00;6.87;;;5.73;;
3865;SDS011;1948;53.250;10.412;2023-09-07T01:13:29;6.63;;;6.00;;
3865;SDS011;1948;53.250;10.412;2023-09-07T01:15:56;6.70;;;6.00;;
3865;SDS011;1948;53.250;10.412;2023-09-07T01:18:23;6.10;;;5.50;;
3865;SDS011;1948;53.250;10.412;2023-09-07T01:20:55;6.03;;;5.40;;
3865;SDS011;1948;53.250;10.412;2023-09-07T01:23:24;19.53;;;7.00;;
3865;SDS011;1948;53.250;10.412;2023-09-07T01:25:52;8.83;;;5.97;;
3865;SDS011;1948;53.250;10.412;2023-09-07T01:28:23;6.80;;;6.20;;
3865;SDS011;1948;53.250;10.412;2023-09-07T01:30:51;6.80;;;6.10;;
3865;SDS011;1948;53.250;10.412;2023-09-07T01:33:18;7.80;;;6.50;;
3865;SDS011;1948;53.250;10.412;2023-09-07T01:35:45;5.90;;;5.57;;
3865;SDS011;1948;53.250;10.412;2023-09-07T01:38:13;6.80;;;5.40;;
3865;SDS011;1948;53.250;10.412;2023-09-07T01:40:40;6.10;;;5.70;;
3865;SDS011;1948;53.250;10.412;2023-09-07T01:43:07;7.00;;;5.57;;
3865;SDS011;1948;53.250;10.412;2023-09-07T01:45:34;10.50;;;5.30;;
3865;SDS011;1948;53.250;10.412;2023-09-07T01:48:01;11.60;;;5.30;;
3865;SDS011;1948;53.250;10.412;2023-09-07T01:50:29;6.07;;;5.43;;
3865;SDS011;1948;53.250;10.412;2023-09-07T01:52:58;9.13;;;5.23;;
3865;SDS011;1948;53.250;10.412;2023-09-07T01:55:27;5.93;;;5.20;;
3865;SDS011;1948;53.250;10.412;2023-09-07T01:57:54;10.80;;;4.70;;
3865;SDS011;1948;53.250;10.412;2023-09-07T02:00:21;5.97;;;5.20;;
3865;SDS011;1948;53.250;10.412;2023-09-07T02:02:48;7.60;;;5.03;;
3865;SDS011;1948;53.250;10.412;2023-09-07T02:05:15;4.83;;;4.40;;
3865;SDS011;1948;53.250;10.412;2023-09-07T02:07:45;12.10;;;4.80;;
3865;SDS011;1948;53.250;10.412;2023-09-07T02:10:15;12.43;;;5.27;;
3865;SDS011;1948;53.250;10.412;2023-09-07T02:12:42;5.40;;;5.20;;
3865;SDS011;1948;53.250;10.412;2023-09-07T02:15:09;9.57;;;5.63;;
3865;SDS011;1948;53.250;10.412;2023-09-07T02:17:38;6.13;;;5.50;;
3865;SDS011;1948;53.250;10.412;2023-09-07T02:20:05;8.00;;;5.17;;
3865;SDS011;1948;53.250;10.412;2023-09-07T02:22:37;6.30;;;5.83;;
3865;SDS011;1948;53.250;10.412;2023-09-07T02:25:05;8.53;;;5.60;;
3865;SDS011;1948;53.250;10.412;2023-09-07T02:27:33;6.23;;;5.50;;
3865;SDS011;1948;53.250;10.412;2023-09-07T02:30:04;8.40;;;5.20;;
3865;SDS011;1948;53.250;10.412;2023-09-07T02:32:32;11.70;;;5.67;;
3865;SDS011;1948;53.250;10.412;2023-09-07T02:34:59;7.33;;;6.63;;
3865;SDS011;1948;53.250;10.412;2023-09-07T02:37:26;10.50;;;5.90;;
3865;SDS011;1948;53.250;10.412;2023-09-07T02:39:55;6.23;;;5.83;;
3865;SDS011;1948;53.250;10.412;2023-09-07T02:42:22;7.10;;;6.23;;
3865;SDS011;1948;53.250;10.412;2023-09-07T02:44:50;7.17;;;6.30;;
3865;SDS011;1948;53.250;10.412;2023-09-07T02:47:22;7.10;;;6.40;;
3865;SDS011;1948;53.250;10.412;2023-09-07T02:49:53;6.93;;;6.23;;
3865;SDS011;1948;53.250;10.412;2023-09-07T02:52:20;7.63;;;6.23;;
3865;SDS011;1948;53.250;10.412;2023-09-07T02:54:50;8.40;;;6.50;;
3865;SDS011;1948;53.250;10.412;2023-09-07T02:57:16;10.00;;;6.13;;
3865;SDS011;1948;53.250;10.412;2023-09-07T02:59:43;6.80;;;6.27;;
3865;SDS011;1948;53.250;10.412;2023-09-07T03:02:10;33.03;;;7.50;;
3865;SDS011;1948;53.250;10.412;2023-09-07T03:04:38;16.00;;;6.93;;
3865;SDS011;1948;53.250;10.412;2023-09-07T03:07:05;10.77;;;6.40;;
3865;SDS011;1948;53.250;10.412;2023-09-07T03:09:35;6.13;;;5.80;;
3865;SDS011;1948;53.250;10.412;2023-09-07T03:12:07;6.30;;;5.70;;
3865;SDS011;1948;53.250;10.412;2023-09-07T03:14:34;6.70;;;5.80;;
3865;SDS011;1948;53.250;10.412;2023-09-07T03:17:01;7.73;;;5.97;;
3865;SDS011;1948;53.250;10.412;2023-09-07T03:19:30;6.20;;;5.80;;
3865;SDS011;1948;53.250;10.412;2023-09-07T03:21:57;6.23;;;5.70;;
3865;SDS011;1948;53.250;10.412;2023-09-07T03:24:26;10.07;;;6.47;;
3865;SDS011;1948;53.250;10.412;2023-09-07T03:26:55;11.73;;;6.40;;
3865;SDS011;1948;53.250;10.412;2023-09-07T03:29:22;5.80;;;5.40;;
3865;SDS011;1948;53.250;10.412;2023-09-07T03:31:49;5.90;;;5.50;;
3865;SDS011;1948;53.250;10.412;2023-09-07T03:34:16;6.60;;;6.07;;
3865;SDS011;1948;53.250;10.412;2023-09-07T03:36:43;6.50;;;5.93;;
3865;SDS011;1948;53.250;10.412;2023-09-07T03:39:10;7.40;;;5.67;;
3865;SDS011;1948;53.250;10.412;2023-09-07T03:41:41;12.73;;;5.80;;
3865;SDS011;1948;53.250;10.412;2023-09-07T03:44:08;6.47;;;5.97;;
3865;SDS011;1948;53.250;10.412;2023-09-07T03:46:35;11.20;;;6.30;;
3865;SDS011;1948;53.250;10.412;2023-09-07T03:49:02;6.70;;;5.97;;
3865;SDS011;1948;53.250;10.412;2023-09-07T03:51:29;5.90;;;5.43;;
3865;SDS011;1948;53.250;10.412;2023-09-07T03:53:57;6.63;;;6.10;;
3865;SDS011;1948;53.250;10.412;2023-09-07T03:56:24;6.53;;;5.70;;
3865;SDS011;1948;53.250;10.412;2023-09-07T03:58:51;7.07;;;6.53;;
3865;SDS011;1948;53.250;10.412;2023-09-07T04:01:18;5.60;;;5.20;;
3865;SDS011;1948;53.250;10.412;2023-09-07T04:03:45;6.00;;;5.60;;
3865;SDS011;1948;53.250;10.412;2023-09-07T04:06:14;10.53;;;5.93;;
3865;SDS011;1948;53.250;10.412;2023-09-07T04:08:41;6.43;;;6.03;;
3865;SDS011;1948;53.250;10.412;2023-09-07T04:11:08;10.50;;;6.20;;
3865;SDS011;1948;53.250;10.412;2023-09-07T04:13:38;6.70;;;6.20;;
3865;SDS011;1948;53.250;10.412;2023-09-07T04:16:05;15.63;;;5.73;;
3865;SDS011;1948;53.250;10.412;2023-09-07T04:18:37;6.30;;;5.83;;
3865;SDS011;1948;53.250;10.412;2023-09-07T04:21:07;8.40;;;7.60;;
3865;SDS011;1948;53.250;10.412;2023-09-07T04:23:35;7.60;;;7.00;;
3865;SDS011;1948;53.250;10.412;2023-09-07T04:26:08;12.20;;;6.43;;
3865;SDS011;1948;53.250;10.412;2023-09-07T04:28:37;7.30;;;6.50;;
3865;SDS011;1948;53.250;10.412;2023-09-07T04:31:05;11.73;;;6.77;;
3865;SDS011;1948;53.250;10.412;2023-09-07T04:33:34;8.67;;;6.83;;
3865;SDS011;1948;53.250;10.412;2023-09-07T04:38:42;16.23;;;8.20;;
3865;SDS011;1948;53.250;10.412;2023-09-07T04:41:09;19.20;;;8.10;;
3865;SDS011;1948;53.250;10.412;2023-09-07T04:43:39;13.33;;;8.17;;
3865;SDS011;1948;53.250;10.412;2023-09-07T04:46:12;13.50;;;9.23;;
3865;SDS011;1948;53.250;10.412;2023-09-07T04:48:46;9.57;;;8.30;;
3865;SDS011;1948;53.250;10.412;2023-09-07T04:51:16;13.13;;;8.10;;
3865;SDS011;1948;53.250;10.412;2023-09-07T04:53:42;12.30;;;8.60;;
3865;SDS011;1948;53.250;10.412;2023-09-07T04:56:09;11.13;;;8.03;;
3865;SDS011;1948;53.250;10.412;2023-09-07T04:58:36;23.73;;;8.90;;
3865;SDS011;1948;53.250;10.412;2023-09-07T05:01:08;11.50;;;9.80;;
3865;SDS011;1948;53.250;10.412;2023-09-07T05:03:37;12.23;;;8.90;;
3865;SDS011;1948;53.250;10.412;2023-09-07T05:06:07;25.20;;;9.33;;
3865;SDS011;1948;53.250;10.412;2023-09-07T05:08:34;18.23;;;9.60;;
3865;SDS011;1948;53.250;10.412;2023-09-07T05:11:02;10.43;;;9.30;;
3865;SDS011;1948;53.250;10.412;2023-09-07T05:13:32;20.83;;;8.73;;
3865;SDS011;1948;53.250;10.412;2023-09-07T05:15:59;19.13;;;9.83;;
3865;SDS011;1948;53.250;10.412;2023-09-07T05:18:27;14.53;;;8.37;;
3865;SDS011;1948;53.250;10.412;2023-09-07T05:20:57;14.73;;;9.90;;
3865;SDS011;1948;53.250;10.412;2023-09-07T05:23:24;12.00;;;9.73;;
3865;SDS011;1948;53.250;10.412;2023-09-07T05:25:53;18.10;;;8.53;;
3865;SDS011;1948;53.250;10.412;2023-09-07T05:28:23;12.63;;;9.03;;
3865;SDS011;1948;53.250;10.412;2023-09-07T05:30:50;9.43;;;8.53;;
3865;SDS011;1948;53.250;10.412;2023-09-07T05:33:17;16.40;;;9.63;;
3865;SDS011;1948;53.250;10.412;2023-09-07T05:35:46;18.20;;;9.80;;
3865;SDS011;1948;53.250;10.412;2023-09-07T05:38:16;13.53;;;9.07;;
3865;SDS011;1948;53.250;10.412;2023-09-07T05:40:43;16.27;;;9.00;;
3865;SDS011;1948;53.250;10.412;2023-09-07T05:43:11;10.60;;;9.67;;
3865;SDS011;1948;53.250;10.412;2023-09-07T05:45:40;9.37;;;8.57;;
3865;SDS011;1948;53.250;10.412;2023-09-07T05:48:07;10.43;;;9.43;;
3865;SDS011;1948;53.250;10.412;2023-09-07T05:50:36;27.47;;;9.50;;
3865;SDS011;1948;53.250;10.412;2023-09-07T05:53:06;20.70;;;9.60;;
3865;SDS011;1948;53.250;10.412;2023-09-07T05:55:33;10.50;;;9.20;;
3865;SDS011;1948;53.250;10.412;2023-09-07T05:58:06;14.93;;;9.40;;
3865;SDS011;1948;53.250;10.412;2023-09-07T06:00:35;18.70;;;8.87;;
3865;SDS011;1948;53.250;10.412;2023-09-07T06:03:06;13.20;;;9.00;;
3865;SDS011;1948;53.250;10.412;2023-09-07T06:05:36;17.93;;;8.50;;
3865;SDS011;1948;53.250;10.412;2023-09-07T06:08:05;15.57;;;9.67;;
3865;SDS011;1948;53.250;10.412;2023-09-07T06:10:32;10.57;;;9.50;;
3865;SDS011;1948;53.250;10.412;2023-09-07T06:13:00;9.27;;;8.30;;
3865;SDS011;1948;53.250;10.412;2023-09-07T06:15:30;14.50;;;8.20;;
3865;SDS011;1948;53.250;10.412;2023-09-07T06:17:57;11.57;;;8.40;;
3865;SDS011;1948;53.250;10.412;2023-09-07T06:20:24;10.90;;;8.73;;
3865;SDS011;1948;53.250;10.412;2023-09-07T06:22:52;12.50;;;7.80;;
3865;SDS011;1948;53.250;10.412;2023-09-07T06:25:18;12.00;;;8.53;;
3865;SDS011;1948;53.250;10.412;2023-09-07T06:27:48;9.40;;;8.63;;
3865;SDS011;1948;53.250;10.412;2023-09-07T06:30:15;10.23;;;8.27;;
3865;SDS011;1948;53.250;10.412;2023-09-07T06:32:42;16.43;;;8.10;;
3865;SDS011;1948;53.250;10.412;2023-09-07T06:35:10;14.93;;;9.10;;
3865;SDS011;1948;53.250;10.412;2023-09-07T06:37:39;9.00;;;7.97;;
3865;SDS011;1948;53.250;10.412;2023-09-07T06:40:08;15.70;;;7.80;;
3865;SDS011;1948;53.250;10.412;2023-09-07T06:42:36;12.67;;;7.60;;
3865;SDS011;1948;53.250;10.412;2023-09-07T06:45:04;8.77;;;8.10;;
3865;SDS011;1948;53.250;10.412;2023-09-07T06:47:32;29.27;;;9.40;;
3865;SDS011;1948;53.250;10.412;2023-09-07T06:49:59;11.33;;;7.47;;
3865;SDS011;1948;53.250;10.412;2023-09-07T06:52:29;11.03;;;7.27;;
3865;SDS011;1948;53.250;10.412;2023-09-07T06:54:56;9.70;;;7.33;;
3865;SDS011;1948;53.250;10.412;2023-09-07T06:57:23;8.80;;;7.90;;
3865;SDS011;1948;53.250;10.412;2023-09-07T06:59:50;9.83;;;8.83;;
3865;SDS011;1948;53.250;10.412;2023-09-07T07:02:19;21.63;;;8.97;;
3865;SDS011;1948;53.250;10.412;2023-09-07T07:04:46;23.27;;;8.87;;
3865;SDS011;1948;53.250;10.412;2023-09-07T07:07:16;9.90;;;8.73;;
3865;SDS011;1948;53.250;10.412;2023-09-07T07:09:44;8.50;;;7.70;;
3865;SDS011;1948;53.250;10.412;2023-09-07T07:12:11;10.70;;;7.73;;
3865;SDS011;1948;53.250;10.412;2023-09-07T07:14:40;14.43;;;9.40;;
3865;SDS011;1948;53.250;10.412;2023-09-07T07:17:07;33.00;;;22.30;;
3865;SDS011;1948;53.250;10.412;2023-09-07T07:19:34;10.07;;;6.97;;
3865;SDS011;1948;53.250;10.412;2023-09-07T07:22:03;7.83;;;6.83;;
3865;SDS011;1948;53.250;10.412;2023-09-07T07:24:30;8.40;;;7.67;;
3865;SDS011;1948;53.250;10.412;2023-09-07T07:26:57;11.30;;;8.70;;
3865;SDS011;1948;53.250;10.412;2023-09-07T07:29:24;8.07;;;7.10;;
3865;SDS011;1948;53.250;10.412;2023-09-07T07:31:56;7.23;;;6.13;;
3865;SDS011;1948;53.250;10.412;2023-09-07T07:34:25;6.93;;;6.33;;
3865;SDS011;1948;53.250;10.412;2023-09-07T07:36:53;7.07;;;6.23;;
3865;SDS011;1948;53.250;10.412;2023-09-07T07:39:20;20.13;;;7.70;;
3865;SDS011;1948;53.250;10.412;2023-09-07T07:41:47;8.10;;;7.43;;
3865;SDS011;1948;53.250;10.412;2023-09-07T07:44:14;6.97;;;6.37;;
3865;SDS011;1948;53.250;10.412;2023-09-07T07:46:45;12.17;;;6.90;;
3865;SDS011;1948;53.250;10.412;2023-09-07T07:49:12;10.87;;;9.30;;
3865;SDS011;1948;53.250;10.412;2023-09-07T07:51:42;7.30;;;6.80;;
3865;SDS011;1948;53.250;10.412;2023-09-07T07:54:09;6.70;;;5.33;;
3865;SDS011;1948;53.250;10.412;2023-09-07T07:56:36;10.40;;;5.30;;
3865;SDS011;1948;53.250;10.412;2023-09-07T07:59:08;9.53;;;4.63;;
3865;SDS011;1948;53.250;10.412;2023-09-07T08:01:35;6.70;;;5.60;;
3865;SDS011;1948;53.250;10.412;2023-09-07T08:04:05;10.83;;;5.13;;
3865;SDS011;1948;53.250;10.412;2023-09-07T08:06:35;5.20;;;5.00;;
3865;SDS011;1948;53.250;10.412;2023-09-07T08:09:02;4.83;;;4.60;;
3865;SDS011;1948;53.250;10.412;2023-09-07T08:11:32;4.90;;;4.70;;
3865;SDS011;1948;53.250;10.412;2023-09-07T08:13:59;5.90;;;5.40;;
3865;SDS011;1948;53.250;10.412;2023-09-07T08:16:28;6.63;;;4.80;;
3865;SDS011;1948;53.250;10.412;2023-09-07T08:18:56;9.43;;;5.20;;
3865;SDS011;1948;53.250;10.412;2023-09-07T08:21:25;14.40;;;4.70;;
3865;SDS011;1948;53.250;10.412;2023-09-07T08:23:52;4.50;;;4.37;;
3865;SDS011;1948;53.250;10.412;2023-09-07T08:26:19;8.40;;;4.07;;
3865;SDS011;1948;53.250;10.412;2023-09-07T08:28:46;8.83;;;4.60;;
3865;SDS011;1948;53.250;10.412;2023-09-07T08:31:13;10.83;;;5.20;;
3865;SDS011;1948;53.250;10.412;2023-09-07T08:33:49;4.37;;;4.00;;
3865;SDS011;1948;53.250;10.412;2023-09-07T08:36:18;4.77;;;4.37;;
3865;SDS011;1948;53.250;10.412;2023-09-07T08:38:51;4.50;;;3.97;;
3865;SDS011;1948;53.250;10.412;2023-09-07T08:41:20;4.70;;;4.30;;
3865;SDS011;1948;53.250;10.412;2023-09-07T08:43:47;5.50;;;4.03;;
3865;SDS011;1948;53.250;10.412;2023-09-07T08:46:19;13.83;;;4.43;;
3865;SDS011;1948;53.250;10.412;2023-09-07T08:48:47;7.17;;;4.40;;
3865;SDS011;1948;53.250;10.412;2023-09-07T08:51:17;4.30;;;3.90;;
3865;SDS011;1948;53.250;10.412;2023-09-07T08:53:48;4.10;;;3.80;;
3865;SDS011;1948;53.250;10.412;2023-09-07T08:56:18;12.70;;;4.60;;
3865;SDS011;1948;53.250;10.412;2023-09-07T08:58:47;4.20;;;3.90;;
3865;SDS011;1948;53.250;10.412;2023-09-07T09:01:17;6.10;;;4.33;;
3865;SDS011;1948;53.250;10.412;2023-09-07T09:03:45;5.90;;;4.27;;
3865;SDS011;1948;53.250;10.412;2023-09-07T09:06:12;7.10;;;4.47;;
3865;SDS011;1948;53.250;10.412;2023-09-07T09:08:54;4.37;;;4.17;;
3865;SDS011;1948;53.250;10.412;2023-09-07T09:11:23;4.53;;;4.17;;
3865;SDS011;1948;53.250;10.412;2023-09-07T09:13:52;5.70;;;4.33;;
3865;SDS011;1948;53.250;10.412;2023-09-07T09:16:20;4.10;;;4.00;;
3865;SDS011;1948;53.250;10.412;2023-09-07T09:18:51;4.33;;;4.00;;
3865;SDS011;1948;53.250;10.412;2023-09-07T09:21:21;6.83;;;3.60;;
3865;SDS011;1948;53.250;10.412;2023-09-07T09:23:51;4.70;;;4.50;;
3865;SDS011;1948;53.250;10.412;2023-09-07T09:26:21;4.97;;;4.50;;
3865;SDS011;1948;53.250;10.412;2023-09-07T09:28:51;3.93;;;3.50;;
3865;SDS011;1948;53.250;10.412;2023-09-07T09:31:19;5.03;;;4.53;;
3865;SDS011;1948;53.250;10.412;2023-09-07T09:33:51;9.50;;;4.20;;
3865;SDS011;1948;53.250;10.412;2023-09-07T09:36:18;8.07;;;4.37;;
3865;SDS011;1948;53.250;10.412;2023-09-07T09:38:49;4.40;;;3.40;;
3865;SDS011;1948;53.250;10.412;2023-09-07T09:41:20;4.23;;;4.03;;
3865;SDS011;1948;53.250;10.412;2023-09-07T09:43:47;4.10;;;3.90;;
3865;SDS011;1948;53.250;10.412;2023-09-07T09:46:18;3.63;;;3.53;;
3865;SDS011;1948;53.250;10.412;2023-09-07T09:48:45;4.37;;;4.07;;
3865;SDS011;1948;53.250;10.412;2023-09-07T09:51:14;6.00;;;3.73;;
3865;SDS011;1948;53.250;10.412;2023-09-07T09:53:44;4.33;;;4.07;;
3865;SDS011;1948;53.250;10.412;2023-09-07T09:56:11;5.33;;;4.43;;
3865;SDS011;1948;53.250;10.412;2023-09-07T09:58:38;4.53;;;4.13;;
3865;SDS011;1948;53.250;10.412;2023-09-07T10:01:07;5.73;;;3.87;;
3865;SDS011;1948;53.250;10.412;2023-09-07T10:03:41;4.00;;;3.70;;
3865;SDS011;1948;53.250;10.412;2023-09-07T10:06:18;4.50;;;4.17;;
3865;SDS011;1948;53.250;10.412;2023-09-07T10:11:34;10.57;;;3.90;;
3865;SDS011;1948;53.250;10.412;2023-09-07T10:14:06;4.23;;;3.87;;
3865;SDS011;1948;53.250;10.412;2023-09-07T10:16:44;5.20;;;3.97;;
3865;SDS011;1948;53.250;10.412;2023-09-07T10:19:21;3.80;;;3.60;;
3865;SDS011;1948;53.250;10.412;2023-09-07T10:21:50;6.00;;;3.50;;
3865;SDS011;1948;53.250;10.412;2023-09-07T10:24:32;4.57;;;3.93;;
3865;SDS011;1948;53.250;10.412;2023-09-07T10:27:08;5.50;;;3.63;;
3865;SDS011;1948;53.250;10.412;2023-09-07T10:29:42;4.20;;;4.00;;
3865;SDS011;1948;53.250;10.412;2023-09-07T10:32:22;3.97;;;3.77;;
3865;SDS011;1948;53.250;10.412;2023-09-07T10:34:51;9.17;;;4.23;;
3865;SDS011;1948;53.250;10.412;2023-09-07T10:37:18;3.70;;;3.43;;
3865;SDS011;1948;53.250;10.412;2023-09-07T10:39:46;3.27;;;3.10;;
3865;SDS011;1948;53.250;10.412;2023-09-07T10:42:20;4.13;;;3.40;;
3865;SDS011;1948;53.250;10.412;2023-09-07T10:44:55;3.70;;;3.40;;
3865;SDS011;1948;53.250;10.412;2023-09-07T10:47:22;5.10;;;3.00;;
3865;SDS011;1948;53.250;10.412;2023-09-07T10:49:49;5.30;;;3.70;;
3865;SDS011;1948;53.250;10.412;2023-09-07T10:52:19;3.40;;;3.10;;
3865;SDS011;1948;53.250;10.412;2023-09-07T10:54:55;13.50;;;3.40;;
3865;SDS011;1948;53.250;10.412;2023-09-07T10:57:25;6.77;;;3.17;;
3865;SDS011;1948;53.250;10.412;2023-09-07T10:59:53;5.40;;;3.10;;
3865;SDS011;1948;53.250;10.412;2023-09-07T11:02:21;3.83;;;3.37;;
3865;SDS011;1948;53.250;10.412;2023-09-07T11:04:51;3.47;;;3.13;;
3865;SDS011;1948;53.250;10.412;2023-09-07T11:07:20;5.07;;;3.40;;
3865;SDS011;1948;53.250;10.412;2023-09-07T11:09:47;3.70;;;3.50;;
3865;SDS011;1948;53.250;10.412;2023-09-07T11:12:20;4.73;;;3.10;;
3865;SDS011;1948;53.250;10.412;2023-09-07T11:14:53;8.37;;;3.10;;
3865;SDS011;1948;53.250;10.412;2023-09-07T11:17:25;6.13;;;2.90;;
3865;SDS011;1948;53.250;10.412;2023-09-07T11:19:58;3.50;;;3.27;;
3865;SDS011;1948;53.250;10.412;2023-09-07T11:22:33;3.00;;;2.70;;
3865;SDS011;1948;53.250;10.412;2023-09-07T11:25:20;3.00;;;2.80;;
3865;SDS011;1948;53.250;10.412;2023-09-07T11:27:47;3.57;;;2.83;;
3865;SDS011;1948;53.250;10.412;2023-09-07T11:30:19;7.60;;;2.97;;
3865;SDS011;1948;53.250;10.412;2023-09-07T11:32:48;3.07;;;2.87;;
3865;SDS011;1948;53.250;10.412;2023-09-07T11:35:15;10.57;;;3.53;;
3865;SDS011;1948;53.250;10.412;2023-09-07T11:37:42;3.37;;;3.17;;
3865;SDS011;1948;53.250;10.412;2023-09-07T11:40:22;4.00;;;3.17;;
3865;SDS011;1948;53.250;10.412;2023-09-07T11:42:52;27.13;;;4.63;;
3865;SDS011;1948;53.250;10.412;2023-09-07T11:45:19;12.03;;;3.13;;
3865;SDS011;1948;53.250;10.412;2023-09-07T11:47:46;3.20;;;2.90;;
3865;SDS011;1948;53.250;10.412;2023-09-07T11:50:16;6.53;;;3.33;;
3865;SDS011;1948;53.250;10.412;2023-09-07T11:52:47;4.70;;;3.13;;
3865;SDS011;1948;53.250;10.412;2023-09-07T11:55:14;3.50;;;2.90;;
3865;SDS011;1948;53.250;10.412;2023-09-07T11:57:41;3.10;;;3.10;;
3865;SDS011;1948;53.250;10.412;2023-09-07T12:00:09;9.70;;;3.17;;
3865;SDS011;1948;53.250;10.412;2023-09-07T12:02:38;6.00;;;3.03;;
3865;SDS011;1948;53.250;10.412;2023-09-07T12:05:10;5.90;;;2.90;;
3865;SDS011;1948;53.250;10.412;2023-09-07T12:07:41;3.77;;;3.40;;
3865;SDS011;1948;53.250;10.412;2023-09-07T12:10:12;5.27;;;3.47;;
3865;SDS011;1948;53.250;10.412;2023-09-07T12:12:40;9.27;;;3.60;;
3865;SDS011;1948;53.250;10.412;2023-09-07T12:15:07;7.10;;;3.13;;
3865;SDS011;1948;53.250;10.412;2023-09-07T12:17:38;25.60;;;3.37;;
3865;SDS011;1948;53.250;10.412;2023-09-07T12:20:06;3.03;;;3.00;;
3865;SDS011;1948;53.250;10.412;2023-09-07T12:22:36;2.90;;;2.80;;
3865;SDS011;1948;53.250;10.412;2023-09-07T12:25:04;3.47;;;3.17;;
3865;SDS011;1948;53.250;10.412;2023-09-07T12:27:43;3.07;;;2.97;;
3865;SDS011;1948;53.250;10.412;2023-09-07T12:30:14;2.93;;;2.90;;
3865;SDS011;1948;53.250;10.412;2023-09-07T12:32:46;3.33;;;3.13;;
3865;SDS011;1948;53.250;10.412;2023-09-07T12:35:17;3.30;;;3.20;;
3865;SDS011;1948;53.250;10.412;2023-09-07T12:37:44;10.50;;;3.30;;
3865;SDS011;1948;53.250;10.412;2023-09-07T12:40:12;3.70;;;3.50;;
3865;SDS011;1948;53.250;10.412;2023-09-07T12:42:43;2.60;;;2.47;;
3865;SDS011;1948;53.250;10.412;2023-09-07T12:45:14;3.07;;;2.97;;
3865;SDS011;1948;53.250;10.412;2023-09-07T12:47:44;4.53;;;2.80;;
3865;SDS011;1948;53.250;10.412;2023-09-07T12:50:14;6.37;;;2.73;;
3865;SDS011;1948;53.250;10.412;2023-09-07T12:52:44;6.57;;;3.00;;
3865;SDS011;1948;53.250;10.412;2023-09-07T12:55:11;3.50;;;3.20;;
3865;SDS011;1948;53.250;10.412;2023-09-07T12:57:40;3.37;;;3.13;;
3865;SDS011;1948;53.250;10.412;2023-09-07T13:00:10;3.57;;;3.27;;
3865;SDS011;1948;53.250;10.412;2023-09-07T13:02:38;5.70;;;3.27;;
3865;SDS011;1948;53.250;10.412;2023-09-07T13:05:07;4.43;;;3.20;;
3865;SDS011;1948;53.250;10.412;2023-09-07T13:07:35;8.60;;;3.10;;
3865;SDS011;1948;53.250;10.412;2023-09-07T13:10:02;3.50;;;3.40;;
3865;SDS011;1948;53.250;10.412;2023-09-07T13:12:31;3.47;;;3.47;;
3865;SDS011;1948;53.250;10.412;2023-09-07T13:14:59;3.50;;;3.23;;
3865;SDS011;1948;53.250;10.412;2023-09-07T13:17:28;10.87;;;3.30;;
3865;SDS011;1948;53.250;10.412;2023-09-07T13:19:55;9.10;;;3.60;;
3865;SDS011;1948;53.250;10.412;2023-09-07T13:22:27;3.10;;;3.00;;
3865;SDS011;1948;53.250;10.412;2023-09-07T13:24:54;3.63;;;3.33;;
3865;SDS011;1948;53.250;10.412;2023-09-07T13:27:24;3.10;;;3.00;;
3865;SDS011;1948;53.250;10.412;2023-09-07T13:29:57;3.13;;;3.03;;
3865;SDS011;1948;53.250;10.412;2023-09-07T13:32:24;3.60;;;3.40;;
3865;SDS011;1948;53.250;10.412;2023-09-07T13:34:51;2.93;;;2.83;;
3865;SDS011;1948;53.250;10.412;2023-09-07T13:37:18;3.70;;;3.50;;
3865;SDS011;1948;53.250;10.412;2023-09-07T13:39:45;2.97;;;2.77;;
3865;SDS011;1948;53.250;10.412;2023-09-07T13:42:12;3.23;;;2.87;;
3865;SDS011;1948;53.250;10.412;2023-09-07T13:44:39;3.27;;;3.07;;
3865;SDS011;1948;53.250;10.412;2023-09-07T13:47:06;3.30;;;3.10;;
3865;SDS011;1948;53.250;10.412;2023-09-07T13:49:36;4.07;;;3.73;;
3865;SDS011;1948;53.250;10.412;2023-09-07T13:52:03;3.70;;;3.60;;
3865;SDS011;1948;53.250;10.412;2023-09-07T13:54:30;3.50;;;3.40;;
3865;SDS011;1948;53.250;10.412;2023-09-07T13:56:57;3.80;;;3.63;;
3865;SDS011;1948;53.250;10.412;2023-09-07T13:59:33;4.23;;;3.50;;
3865;SDS011;1948;53.250;10.412;2023-09-07T14:02:00;3.50;;;3.40;;
3865;SDS011;1948;53.250;10.412;2023-09-07T14:04:28;11.50;;;3.33;;
3865;SDS011;1948;53.250;10.412;2023-09-07T14:06:57;10.53;;;3.80;;
3865;SDS011;1948;53.250;10.412;2023-09-07T14:09:24;11.00;;;3.70;;
3865;SDS011;1948;53.250;10.412;2023-09-07T14:11:51;4.10;;;3.73;;
3865;SDS011;1948;53.250;10.412;2023-09-07T14:14:20;3.53;;;3.40;;
3865;SDS011;1948;53.250;10.412;2023-09-07T14:16:51;5.43;;;4.73;;
3865;SDS011;1948;53.250;10.412;2023-09-07T14:19:23;9.27;;;4.50;;
3865;SDS011;1948;53.250;10.412;2023-09-07T14:21:53;4.30;;;4.20;;
3865;SDS011;1948;53.250;10.412;2023-09-07T14:24:19;4.27;;;4.10;;
3865;SDS011;1948;53.250;10.412;2023-09-07T14:26:49;5.13;;;4.63;;
3865;SDS011;1948;53.250;10.412;2023-09-07T14:29:16;4.80;;;4.43;;
3865;SDS011;1948;53.250;10.412;2023-09-07T14:31:46;13.67;;;4.17;;
3865;SDS011;1948;53.250;10.412;2023-09-07T14:34:13;4.40;;;4.10;;
3865;SDS011;1948;53.250;10.412;2023-09-07T14:36:40;3.70;;;3.50;;
3865;SDS011;1948;53.250;10.412;2023-09-07T14:39:13;5.27;;;4.00;;
3865;SDS011;1948;53.250;10.412;2023-09-07T14:41:42;16.73;;;4.10;;
3865;SDS011;1948;53.250;10.412;2023-09-07T14:44:09;6.63;;;4.00;;
3865;SDS011;1948;53.250;10.412;2023-09-07T14:46:38;4.53;;;4.33;;
3865;SDS011;1948;53.250;10.412;2023-09-07T14:49:08;7.57;;;3.93;;
3865;SDS011;1948;53.250;10.412;2023-09-07T14:51:37;4.27;;;3.97;;
3865;SDS011;1948;53.250;10.412;2023-09-07T14:54:04;5.23;;;4.83;;
3865;SDS011;1948;53.250;10.412;2023-09-07T14:56:31;4.90;;;4.50;;
3865;SDS011;1948;53.250;10.412;2023-09-07T14:59:04;6.20;;;4.20;;
3865;SDS011;1948;53.250;10.412;2023-09-07T15:01:31;5.43;;;3.87;;
3865;SDS011;1948;53.250;10.412;2023-09-07T15:03:58;7.60;;;4.37;;
3865;SDS011;1948;53.250;10.412;2023-09-07T15:06:25;4.70;;;4.33;;
3865;SDS011;1948;53.250;10.412;2023-09-07T15:08:52;7.53;;;4.80;;
3865;SDS011;1948;53.250;10.412;2023-09-07T15:11:21;6.80;;;4.20;;
3865;SDS011;1948;53.250;10.412;2023-09-07T15:13:49;4.90;;;4.20;;
3865;SDS011;1948;53.250;10.412;2023-09-07T15:16:19;8.90;;;4.30;;